Flight Briefing for CPX403

Departure Arrival
Seattle-Tacoma International Airport (KSEA)
Click to view FAA NOTAMS
Los Angeles International Airport (KLAX)
Click to view FAA NOTAMS
Departure Time Arrival Time
N/A N/A
Aircraft Distance
B757-200SF 831nm
Departure METAR Arrival METAR
KSEA 221153Z 25004KT 10SM BKN046 BKN120 09/06 A2996 RMK AO2 SLP152 T00890056 10106 20083 56018 KLAX 221153Z 00000KT 10SM FEW016 FEW026 SCT140 SCT200 10/07 A3014 RMK AO2 SLP204 70002 T01000067 10133 20100 55008
Suggested Route
SUMMA1 SUMMA JINMO Q7 JAGWA BURGL IRNMN2


View recent IFR Routes data
Notes



Charts and Procedures

Charts for KSEA
No chart available
Charts for KLAX
No chart available

Windy.com Weather Map